sensor_id;sensor_type;location;lat;lon;timestamp;P1;durP1;ratioP1;P2;durP2;ratioP2
68872;SDS011;55907;50.806;12.882;2023-08-24T00:01:00;341.5;;;313.0;;
68872;SDS011;55907;50.806;12.882;2023-08-24T00:04:02;340.6;;;311.2;;
68872;SDS011;55907;50.806;12.882;2023-08-24T00:07:03;366.6;;;334.9;;
68872;SDS011;55907;50.806;12.882;2023-08-24T00:10:05;384.8;;;351.2;;
68872;SDS011;55907;50.806;12.882;2023-08-24T00:13:06;415.9;;;380.1;;
68872;SDS011;55907;50.806;12.882;2023-08-24T00:16:07;436.2;;;398.7;;
68872;SDS011;55907;50.806;12.882;2023-08-24T00:19:09;471.5;;;431.8;;
68872;SDS011;55907;50.806;12.882;2023-08-24T00:22:10;487.0;;;446.4;;
68872;SDS011;55907;50.806;12.882;2023-08-24T00:25:12;505.4;;;464.2;;
68872;SDS011;55907;50.806;12.882;2023-08-24T00:28:13;525.3;;;483.0;;
68872;SDS011;55907;50.806;12.882;2023-08-24T00:31:15;534.7;;;492.2;;
68872;SDS011;55907;50.806;12.882;2023-08-24T00:34:16;544.8;;;502.3;;
68872;SDS011;55907;50.806;12.882;2023-08-24T00:37:17;547.1;;;505.1;;
68872;SDS011;55907;50.806;12.882;2023-08-24T00:40:19;556.6;;;513.8;;
68872;SDS011;55907;50.806;12.882;2023-08-24T00:43:20;555.8;;;513.3;;
68872;SDS011;55907;50.806;12.882;2023-08-24T00:46:22;547.3;;;505.6;;
68872;SDS011;55907;50.806;12.882;2023-08-24T00:49:23;535.4;;;494.7;;
68872;SDS011;55907;50.806;12.882;2023-08-24T00:52:24;521.6;;;482.3;;
68872;SDS011;55907;50.806;12.882;2023-08-24T00:55:26;512.7;;;474.5;;
68872;SDS011;55907;50.806;12.882;2023-08-24T00:58:27;500.1;;;462.9;;
68872;SDS011;55907;50.806;12.882;2023-08-24T01:01:29;501.0;;;464.3;;
68872;SDS011;55907;50.806;12.882;2023-08-24T01:04:30;488.9;;;453.0;;
68872;SDS011;55907;50.806;12.882;2023-08-24T01:07:32;473.5;;;439.0;;
68872;SDS011;55907;50.806;12.882;2023-08-24T01:10:36;460.2;;;426.6;;
68872;SDS011;55907;50.806;12.882;2023-08-24T01:13:36;450.8;;;417.8;;
68872;SDS011;55907;50.806;12.882;2023-08-24T01:16:36;435.8;;;404.0;;
68872;SDS011;55907;50.806;12.882;2023-08-24T01:19:38;426.6;;;395.4;;
68872;SDS011;55907;50.806;12.882;2023-08-24T01:22:41;410.0;;;380.0;;
68872;SDS011;55907;50.806;12.882;2023-08-24T01:25:42;389.6;;;360.8;;
68872;SDS011;55907;50.806;12.882;2023-08-24T01:28:42;382.0;;;354.2;;
68872;SDS011;55907;50.806;12.882;2023-08-24T01:31:43;366.7;;;340.6;;
68872;SDS011;55907;50.806;12.882;2023-08-24T01:34:45;349.9;;;325.2;;
68872;SDS011;55907;50.806;12.882;2023-08-24T01:37:46;324.5;;;301.9;;
68872;SDS011;55907;50.806;12.882;2023-08-24T01:40:49;305.7;;;284.8;;
68872;SDS011;55907;50.806;12.882;2023-08-24T01:43:49;274.0;;;255.5;;
68872;SDS011;55907;50.806;12.882;2023-08-24T01:46:50;255.6;;;238.5;;
68872;SDS011;55907;50.806;12.882;2023-08-24T01:49:52;235.5;;;219.6;;
68872;SDS011;55907;50.806;12.882;2023-08-24T01:52:53;227.3;;;211.8;;
68872;SDS011;55907;50.806;12.882;2023-08-24T01:55:55;208.4;;;194.0;;
68872;SDS011;55907;50.806;12.882;2023-08-24T01:58:56;212.5;;;197.8;;
68872;SDS011;55907;50.806;12.882;2023-08-24T02:01:57;204.0;;;189.8;;
68872;SDS011;55907;50.806;12.882;2023-08-24T02:04:59;206.4;;;191.9;;
68872;SDS011;55907;50.806;12.882;2023-08-24T02:08:00;195.2;;;181.4;;
68872;SDS011;55907;50.806;12.882;2023-08-24T02:11:02;185.2;;;171.8;;
68872;SDS011;55907;50.806;12.882;2023-08-24T02:14:03;172.1;;;159.4;;
68872;SDS011;55907;50.806;12.882;2023-08-24T02:17:05;168.0;;;155.3;;
68872;SDS011;55907;50.806;12.882;2023-08-24T02:20:06;169.2;;;156.1;;
68872;SDS011;55907;50.806;12.882;2023-08-24T02:23:08;164.3;;;151.4;;
68872;SDS011;55907;50.806;12.882;2023-08-24T02:26:09;163.1;;;150.1;;
68872;SDS011;55907;50.806;12.882;2023-08-24T02:29:10;156.5;;;143.9;;
68872;SDS011;55907;50.806;12.882;2023-08-24T02:32:12;151.7;;;139.4;;
68872;SDS011;55907;50.806;12.882;2023-08-24T02:35:13;150.0;;;137.5;;
68872;SDS011;55907;50.806;12.882;2023-08-24T02:38:15;154.4;;;141.1;;
68872;SDS011;55907;50.806;12.882;2023-08-24T02:41:16;152.0;;;138.8;;
68872;SDS011;55907;50.806;12.882;2023-08-24T02:44:18;147.5;;;134.5;;
68872;SDS011;55907;50.806;12.882;2023-08-24T02:47:19;152.3;;;138.4;;
68872;SDS011;55907;50.806;12.882;2023-08-24T02:50:21;146.8;;;133.6;;
68872;SDS011;55907;50.806;12.882;2023-08-24T02:53:22;149.6;;;136.0;;
68872;SDS011;55907;50.806;12.882;2023-08-24T02:56:23;169.4;;;154.1;;
68872;SDS011;55907;50.806;12.882;2023-08-24T02:59:25;179.1;;;163.0;;
68872;SDS011;55907;50.806;12.882;2023-08-24T03:02:26;178.2;;;162.4;;
68872;SDS011;55907;50.806;12.882;2023-08-24T03:05:28;188.3;;;171.6;;
68872;SDS011;55907;50.806;12.882;2023-08-24T03:08:29;192.8;;;176.3;;
68872;SDS011;55907;50.806;12.882;2023-08-24T03:11:31;204.1;;;186.6;;
68872;SDS011;55907;50.806;12.882;2023-08-24T03:14:32;205.7;;;188.5;;
68872;SDS011;55907;50.806;12.882;2023-08-24T03:17:34;223.7;;;205.1;;
68872;SDS011;55907;50.806;12.882;2023-08-24T03:20:35;231.4;;;212.2;;
68872;SDS011;55907;50.806;12.882;2023-08-24T03:23:37;235.9;;;216.5;;
68872;SDS011;55907;50.806;12.882;2023-08-24T03:26:38;244.4;;;224.6;;
68872;SDS011;55907;50.806;12.882;2023-08-24T03:29:39;244.0;;;224.1;;
68872;SDS011;55907;50.806;12.882;2023-08-24T03:32:41;249.4;;;229.3;;
68872;SDS011;55907;50.806;12.882;2023-08-24T03:35:42;267.5;;;246.3;;
68872;SDS011;55907;50.806;12.882;2023-08-24T03:38:44;265.5;;;244.6;;
68872;SDS011;55907;50.806;12.882;2023-08-24T03:41:45;257.9;;;237.8;;
68872;SDS011;55907;50.806;12.882;2023-08-24T03:44:47;268.7;;;248.1;;
68872;SDS011;55907;50.806;12.882;2023-08-24T03:47:48;270.6;;;250.2;;
68872;SDS011;55907;50.806;12.882;2023-08-24T03:50:50;269.3;;;249.2;;
68872;SDS011;55907;50.806;12.882;2023-08-24T03:53:51;266.7;;;247.0;;
68872;SDS011;55907;50.806;12.882;2023-08-24T03:56:53;267.1;;;247.9;;
68872;SDS011;55907;50.806;12.882;2023-08-24T03:59:54;277.6;;;257.8;;
68872;SDS011;55907;50.806;12.882;2023-08-24T04:02:55;278.1;;;258.7;;
68872;SDS011;55907;50.806;12.882;2023-08-24T04:05:57;273.0;;;254.3;;
68872;SDS011;55907;50.806;12.882;2023-08-24T04:08:58;271.0;;;252.8;;
68872;SDS011;55907;50.806;12.882;2023-08-24T04:12:00;269.5;;;251.6;;
68872;SDS011;55907;50.806;12.882;2023-08-24T04:15:01;281.1;;;262.6;;
68872;SDS011;55907;50.806;12.882;2023-08-24T04:18:03;278.9;;;260.6;;
68872;SDS011;55907;50.806;12.882;2023-08-24T04:21:04;270.6;;;253.0;;
68872;SDS011;55907;50.806;12.882;2023-08-24T04:24:06;259.7;;;243.2;;
68872;SDS011;55907;50.806;12.882;2023-08-24T04:27:07;263.7;;;246.8;;
68872;SDS011;55907;50.806;12.882;2023-08-24T04:30:09;255.4;;;239.1;;
68872;SDS011;55907;50.806;12.882;2023-08-24T04:33:10;250.1;;;234.3;;
68872;SDS011;55907;50.806;12.882;2023-08-24T04:36:11;259.1;;;242.7;;
68872;SDS011;55907;50.806;12.882;2023-08-24T04:39:13;254.6;;;238.2;;
68872;SDS011;55907;50.806;12.882;2023-08-24T04:42:14;244.6;;;229.0;;
68872;SDS011;55907;50.806;12.882;2023-08-24T04:45:17;247.4;;;231.6;;
68872;SDS011;55907;50.806;12.882;2023-08-24T04:48:17;236.8;;;221.8;;
68872;SDS011;55907;50.806;12.882;2023-08-24T04:51:19;236.2;;;221.0;;
68872;SDS011;55907;50.806;12.882;2023-08-24T04:54:20;236.1;;;220.7;;
68872;SDS011;55907;50.806;12.882;2023-08-24T04:57:22;229.0;;;214.1;;
68872;SDS011;55907;50.806;12.882;2023-08-24T05:00:23;225.8;;;210.9;;
68872;SDS011;55907;50.806;12.882;2023-08-24T05:03:24;221.4;;;206.3;;
68872;SDS011;55907;50.806;12.882;2023-08-24T05:06:26;216.6;;;201.8;;
68872;SDS011;55907;50.806;12.882;2023-08-24T05:09:27;199.1;;;185.2;;
68872;SDS011;55907;50.806;12.882;2023-08-24T05:12:29;208.7;;;193.6;;
68872;SDS011;55907;50.806;12.882;2023-08-24T05:15:30;214.3;;;198.4;;
68872;SDS011;55907;50.806;12.882;2023-08-24T05:18:33;203.0;;;187.8;;
68872;SDS011;55907;50.806;12.882;2023-08-24T05:21:33;181.9;;;168.0;;
68872;SDS011;55907;50.806;12.882;2023-08-24T05:24:34;173.1;;;159.8;;
68872;SDS011;55907;50.806;12.882;2023-08-24T05:27:36;185.7;;;172.0;;
68872;SDS011;55907;50.806;12.882;2023-08-24T05:30:37;201.9;;;187.7;;
68872;SDS011;55907;50.806;12.882;2023-08-24T05:33:39;197.1;;;183.5;;
68872;SDS011;55907;50.806;12.882;2023-08-24T05:36:40;201.6;;;187.9;;
68872;SDS011;55907;50.806;12.882;2023-08-24T05:39:42;200.5;;;186.9;;
68872;SDS011;55907;50.806;12.882;2023-08-24T05:42:43;201.1;;;187.5;;
68872;SDS011;55907;50.806;12.882;2023-08-24T05:45:45;194.8;;;181.5;;
68872;SDS011;55907;50.806;12.882;2023-08-24T05:48:46;199.3;;;185.5;;
68872;SDS011;55907;50.806;12.882;2023-08-24T05:51:50;207.5;;;192.9;;
68872;SDS011;55907;50.806;12.882;2023-08-24T05:54:49;212.4;;;197.5;;
68872;SDS011;55907;50.806;12.882;2023-08-24T05:57:50;211.7;;;196.6;;
68872;SDS011;55907;50.806;12.882;2023-08-24T06:00:55;222.2;;;206.5;;
68872;SDS011;55907;50.806;12.882;2023-08-24T06:03:53;223.5;;;207.8;;
68872;SDS011;55907;50.806;12.882;2023-08-24T06:06:54;217.6;;;202.5;;
68872;SDS011;55907;50.806;12.882;2023-08-24T06:09:56;222.1;;;206.9;;
68872;SDS011;55907;50.806;12.882;2023-08-24T06:12:57;225.9;;;210.7;;
68872;SDS011;55907;50.806;12.882;2023-08-24T06:15:59;229.5;;;214.0;;
68872;SDS011;55907;50.806;12.882;2023-08-24T06:19:00;239.2;;;223.4;;
68872;SDS011;55907;50.806;12.882;2023-08-24T06:22:01;236.9;;;221.2;;
68872;SDS011;55907;50.806;12.882;2023-08-24T06:25:03;251.6;;;234.7;;
68872;SDS011;55907;50.806;12.882;2023-08-24T06:28:04;269.3;;;251.2;;
68872;SDS011;55907;50.806;12.882;2023-08-24T06:31:06;298.2;;;278.1;;
68872;SDS011;55907;50.806;12.882;2023-08-24T06:34:07;301.3;;;280.9;;
68872;SDS011;55907;50.806;12.882;2023-08-24T06:37:08;316.2;;;294.9;;
68872;SDS011;55907;50.806;12.882;2023-08-24T06:40:10;318.9;;;297.4;;
68872;SDS011;55907;50.806;12.882;2023-08-24T06:43:11;332.9;;;310.6;;
68872;SDS011;55907;50.806;12.882;2023-08-24T06:46:13;349.5;;;326.5;;
68872;SDS011;55907;50.806;12.882;2023-08-24T06:49:14;352.7;;;329.8;;
68872;SDS011;55907;50.806;12.882;2023-08-24T06:52:15;364.9;;;341.7;;
68872;SDS011;55907;50.806;12.882;2023-08-24T06:55:17;379.1;;;355.4;;
68872;SDS011;55907;50.806;12.882;2023-08-24T06:58:18;375.4;;;352.6;;
68872;SDS011;55907;50.806;12.882;2023-08-24T07:01:20;378.0;;;355.5;;
68872;SDS011;55907;50.806;12.882;2023-08-24T07:04:21;365.3;;;344.4;;
68872;SDS011;55907;50.806;12.882;2023-08-24T07:07:22;351.1;;;331.6;;
68872;SDS011;55907;50.806;12.882;2023-08-24T07:10:24;345.9;;;326.8;;
68872;SDS011;55907;50.806;12.882;2023-08-24T07:13:25;318.4;;;300.6;;
68872;SDS011;55907;50.806;12.882;2023-08-24T07:16:27;340.4;;;320.0;;
68872;SDS011;55907;50.806;12.882;2023-08-24T07:19:28;468.9;;;433.1;;
68872;SDS011;55907;50.806;12.882;2023-08-24T07:22:29;472.3;;;435.4;;
68872;SDS011;55907;50.806;12.882;2023-08-24T07:25:31;411.6;;;376.6;;
68872;SDS011;55907;50.806;12.882;2023-08-24T07:28:32;379.0;;;344.1;;
68872;SDS011;55907;50.806;12.882;2023-08-24T07:31:33;358.1;;;322.1;;
68872;SDS011;55907;50.806;12.882;2023-08-24T07:34:35;351.0;;;313.3;;
68872;SDS011;55907;50.806;12.882;2023-08-24T07:37:36;362.9;;;320.2;;
68872;SDS011;55907;50.806;12.882;2023-08-24T07:40:38;403.6;;;347.5;;
68872;SDS011;55907;50.806;12.882;2023-08-24T07:43:39;396.5;;;339.5;;
68872;SDS011;55907;50.806;12.882;2023-08-24T07:46:40;409.2;;;351.3;;
68872;SDS011;55907;50.806;12.882;2023-08-24T07:49:42;430.9;;;377.0;;
68872;SDS011;55907;50.806;12.882;2023-08-24T07:52:43;451.0;;;401.4;;
68872;SDS011;55907;50.806;12.882;2023-08-24T07:55:45;486.8;;;433.7;;
68872;SDS011;55907;50.806;12.882;2023-08-24T07:58:46;503.2;;;447.5;;
68872;SDS011;55907;50.806;12.882;2023-08-24T08:01:47;510.4;;;446.2;;
68872;SDS011;55907;50.806;12.882;2023-08-24T08:04:49;520.5;;;445.3;;
68872;SDS011;55907;50.806;12.882;2023-08-24T08:07:50;522.1;;;449.4;;
68872;SDS011;55907;50.806;12.882;2023-08-24T08:10:57;512.4;;;455.6;;
68872;SDS011;55907;50.806;12.882;2023-08-24T08:13:53;548.0;;;492.4;;
68872;SDS011;55907;50.806;12.882;2023-08-24T08:16:54;565.5;;;511.7;;
68872;SDS011;55907;50.806;12.882;2023-08-24T08:19:56;586.6;;;533.5;;
68872;SDS011;55907;50.806;12.882;2023-08-24T08:22:58;600.6;;;547.7;;
68872;SDS011;55907;50.806;12.882;2023-08-24T08:25:58;580.0;;;529.9;;
68872;SDS011;55907;50.806;12.882;2023-08-24T08:29:00;580.4;;;529.9;;
68872;SDS011;55907;50.806;12.882;2023-08-24T08:32:01;546.1;;;497.7;;
68872;SDS011;55907;50.806;12.882;2023-08-24T08:35:03;507.4;;;460.8;;
68872;SDS011;55907;50.806;12.882;2023-08-24T08:38:05;465.5;;;420.8;;
68872;SDS011;55907;50.806;12.882;2023-08-24T08:41:05;460.0;;;414.5;;
68872;SDS011;55907;50.806;12.882;2023-08-24T08:44:06;458.7;;;411.8;;
68872;SDS011;55907;50.806;12.882;2023-08-24T08:47:08;505.8;;;454.5;;
68872;SDS011;55907;50.806;12.882;2023-08-24T08:50:09;483.2;;;434.9;;
68872;SDS011;55907;50.806;12.882;2023-08-24T08:53:10;449.0;;;406.1;;
68872;SDS011;55907;50.806;12.882;2023-08-24T08:56:12;426.6;;;387.9;;
68872;SDS011;55907;50.806;12.882;2023-08-24T08:59:13;425.4;;;388.5;;
68872;SDS011;55907;50.806;12.882;2023-08-24T09:02:16;430.4;;;393.8;;
68872;SDS011;55907;50.806;12.882;2023-08-24T09:05:16;466.5;;;429.5;;
68872;SDS011;55907;50.806;12.882;2023-08-24T09:08:17;701.1;;;645.8;;
68872;SDS011;55907;50.806;12.882;2023-08-24T09:11:19;517.5;;;480.9;;
68872;SDS011;55907;50.806;12.882;2023-08-24T09:14:20;835.1;;;757.0;;
68872;SDS011;55907;50.806;12.882;2023-08-24T09:17:21;911.3;;;813.9;;
68872;SDS011;55907;50.806;12.882;2023-08-24T09:20:23;913.7;;;832.5;;
68872;SDS011;55907;50.806;12.882;2023-08-24T09:23:24;1002.7;;;917.1;;
68872;SDS011;55907;50.806;12.882;2023-08-24T09:26:27;1028.1;;;934.3;;
68872;SDS011;55907;50.806;12.882;2023-08-24T09:29:27;964.5;;;880.5;;
68872;SDS011;55907;50.806;12.882;2023-08-24T09:32:28;894.8;;;821.3;;
68872;SDS011;55907;50.806;12.882;2023-08-24T09:35:35;915.3;;;841.6;;
68872;SDS011;55907;50.806;12.882;2023-08-24T09:38:31;901.5;;;831.7;;
68872;SDS011;55907;50.806;12.882;2023-08-24T09:41:39;864.3;;;801.1;;
68872;SDS011;55907;50.806;12.882;2023-08-24T09:44:33;847.8;;;787.1;;
68872;SDS011;55907;50.806;12.882;2023-08-24T09:47:35;834.7;;;775.0;;
68872;SDS011;55907;50.806;12.882;2023-08-24T09:50:36;792.8;;;737.6;;
68872;SDS011;55907;50.806;12.882;2023-08-24T09:53:37;795.1;;;741.1;;
68872;SDS011;55907;50.806;12.882;2023-08-24T09:56:39;775.8;;;723.5;;
68872;SDS011;55907;50.806;12.882;2023-08-24T09:59:40;758.5;;;709.3;;
68872;SDS011;55907;50.806;12.882;2023-08-24T10:02:45;736.4;;;690.7;;
68872;SDS011;55907;50.806;12.882;2023-08-24T10:05:43;694.9;;;652.8;;
68872;SDS011;55907;50.806;12.882;2023-08-24T10:08:47;664.9;;;626.3;;
68872;SDS011;55907;50.806;12.882;2023-08-24T10:11:46;647.8;;;610.6;;
68872;SDS011;55907;50.806;12.882;2023-08-24T10:14:47;634.7;;;598.2;;
68872;SDS011;55907;50.806;12.882;2023-08-24T10:17:48;642.8;;;605.5;;
68872;SDS011;55907;50.806;12.882;2023-08-24T10:20:49;618.4;;;581.2;;
68872;SDS011;55907;50.806;12.882;2023-08-24T10:23:51;597.1;;;559.0;;
68872;SDS011;55907;50.806;12.882;2023-08-24T10:26:52;595.4;;;556.2;;
68872;SDS011;55907;50.806;12.882;2023-08-24T10:29:53;649.8;;;606.9;;
68872;SDS011;55907;50.806;12.882;2023-08-24T10:32:55;684.5;;;637.3;;
68872;SDS011;55907;50.806;12.882;2023-08-24T10:35:56;701.0;;;651.4;;
68872;SDS011;55907;50.806;12.882;2023-08-24T10:38:57;716.9;;;666.0;;
68872;SDS011;55907;50.806;12.882;2023-08-24T10:41:59;756.8;;;702.5;;
68872;SDS011;55907;50.806;12.882;2023-08-24T10:45:00;766.0;;;711.2;;
68872;SDS011;55907;50.806;12.882;2023-08-24T10:48:02;803.9;;;747.3;;
68872;SDS011;55907;50.806;12.882;2023-08-24T10:54:04;776.6;;;727.4;;
68872;SDS011;55907;50.806;12.882;2023-08-24T10:57:06;806.9;;;756.7;;
68872;SDS011;55907;50.806;12.882;2023-08-24T11:00:08;720.5;;;677.2;;
68872;SDS011;55907;50.806;12.882;2023-08-24T11:03:08;726.6;;;676.7;;
68872;SDS011;55907;50.806;12.882;2023-08-24T11:06:17;820.8;;;758.0;;
68872;SDS011;55907;50.806;12.882;2023-08-24T11:09:11;893.3;;;820.1;;
68872;SDS011;55907;50.806;12.882;2023-08-24T11:12:12;917.4;;;841.2;;
68872;SDS011;55907;50.806;12.882;2023-08-24T11:15:14;890.0;;;815.1;;
68872;SDS011;55907;50.806;12.882;2023-08-24T11:18:23;821.1;;;754.2;;
68872;SDS011;55907;50.806;12.882;2023-08-24T11:21:17;756.3;;;695.3;;
68872;SDS011;55907;50.806;12.882;2023-08-24T11:24:18;685.6;;;628.5;;
68872;SDS011;55907;50.806;12.882;2023-08-24T11:27:20;772.5;;;710.4;;
68872;SDS011;55907;50.806;12.882;2023-08-24T11:30:21;755.1;;;693.5;;
68872;SDS011;55907;50.806;12.882;2023-08-24T11:33:30;718.3;;;659.8;;
68872;SDS011;55907;50.806;12.882;2023-08-24T11:36:23;752.0;;;689.3;;
68872;SDS011;55907;50.806;12.882;2023-08-24T11:39:25;924.8;;;846.6;;
68872;SDS011;55907;50.806;12.882;2023-08-24T11:42:26;932.7;;;854.8;;
68872;SDS011;55907;50.806;12.882;2023-08-24T11:45:31;934.7;;;858.1;;
68872;SDS011;55907;50.806;12.882;2023-08-24T11:48:29;935.5;;;859.6;;
68872;SDS011;55907;50.806;12.882;2023-08-24T11:51:30;937.5;;;861.8;;
68872;SDS011;55907;50.806;12.882;2023-08-24T11:54:32;931.9;;;855.3;;
68872;SDS011;55907;50.806;12.882;2023-08-24T11:57:33;943.7;;;865.3;;
68872;SDS011;55907;50.806;12.882;2023-08-24T12:00:34;942.1;;;863.9;;
68872;SDS011;55907;50.806;12.882;2023-08-24T12:03:36;926.5;;;849.5;;
68872;SDS011;55907;50.806;12.882;2023-08-24T12:06:37;908.6;;;833.5;;
68872;SDS011;55907;50.806;12.882;2023-08-24T12:09:38;900.1;;;825.5;;
68872;SDS011;55907;50.806;12.882;2023-08-24T12:12:39;897.0;;;824.6;;
68872;SDS011;55907;50.806;12.882;2023-08-24T12:15:41;903.0;;;830.4;;
68872;SDS011;55907;50.806;12.882;2023-08-24T12:18:46;915.2;;;839.6;;
68872;SDS011;55907;50.806;12.882;2023-08-24T12:21:44;931.2;;;853.4;;
68872;SDS011;55907;50.806;12.882;2023-08-24T12:24:45;933.7;;;856.0;;
68872;SDS011;55907;50.806;12.882;2023-08-24T12:27:46;935.8;;;858.4;;
68872;SDS011;55907;50.806;12.882;2023-08-24T12:30:48;928.1;;;852.2;;
68872;SDS011;55907;50.806;12.882;2023-08-24T12:33:58;945.1;;;868.7;;
68872;SDS011;55907;50.806;12.882;2023-08-24T12:36:50;958.5;;;880.7;;
68872;SDS011;55907;50.806;12.882;2023-08-24T12:39:52;976.7;;;896.3;;
68872;SDS011;55907;50.806;12.882;2023-08-24T12:42:53;985.7;;;904.3;;
68872;SDS011;55907;50.806;12.882;2023-08-24T12:45:54;1012.9;;;924.2;;
68872;SDS011;55907;50.806;12.882;2023-08-24T12:48:56;1039.8;;;945.0;;
68872;SDS011;55907;50.806;12.882;2023-08-24T12:51:57;1037.1;;;938.9;;
68872;SDS011;55907;50.806;12.882;2023-08-24T12:54:58;1038.7;;;938.5;;
68872;SDS011;55907;50.806;12.882;2023-08-24T12:58:00;1050.5;;;946.7;;
68872;SDS011;55907;50.806;12.882;2023-08-24T13:01:01;1062.6;;;958.4;;
68872;SDS011;55907;50.806;12.882;2023-08-24T13:04:03;1065.0;;;961.9;;
68872;SDS011;55907;50.806;12.882;2023-08-24T13:07:04;1064.9;;;962.4;;
68872;SDS011;55907;50.806;12.882;2023-08-24T13:10:06;1062.2;;;958.7;;
68872;SDS011;55907;50.806;12.882;2023-08-24T13:13:07;1080.9;;;975.9;;
68872;SDS011;55907;50.806;12.882;2023-08-24T13:16:08;1080.2;;;976.4;;
68872;SDS011;55907;50.806;12.882;2023-08-24T13:19:09;1075.3;;;972.8;;
68872;SDS011;55907;50.806;12.882;2023-08-24T13:22:11;1083.5;;;979.7;;
68872;SDS011;55907;50.806;12.882;2023-08-24T13:25:12;1091.0;;;985.9;;
68872;SDS011;55907;50.806;12.882;2023-08-24T13:28:13;1088.5;;;983.6;;
68872;SDS011;55907;50.806;12.882;2023-08-24T13:31:15;1074.7;;;969.8;;
68872;SDS011;55907;50.806;12.882;2023-08-24T13:34:16;1071.0;;;968.3;;
68872;SDS011;55907;50.806;12.882;2023-08-24T13:37:18;1064.3;;;962.2;;
68872;SDS011;55907;50.806;12.882;2023-08-24T13:40:19;1070.8;;;968.8;;
68872;SDS011;55907;50.806;12.882;2023-08-24T13:43:20;1076.8;;;971.1;;
68872;SDS011;55907;50.806;12.882;2023-08-24T13:46:22;1081.0;;;976.1;;
68872;SDS011;55907;50.806;12.882;2023-08-24T13:49:23;1076.6;;;972.5;;
68872;SDS011;55907;50.806;12.882;2023-08-24T13:52:24;1074.2;;;971.0;;
68872;SDS011;55907;50.806;12.882;2023-08-24T13:55:26;1071.9;;;967.2;;
68872;SDS011;55907;50.806;12.882;2023-08-24T13:58:27;1075.0;;;971.1;;
68872;SDS011;55907;50.806;12.882;2023-08-24T14:01:28;1068.5;;;967.0;;
68872;SDS011;55907;50.806;12.882;2023-08-24T14:04:30;1081.8;;;978.1;;
68872;SDS011;55907;50.806;12.882;2023-08-24T14:07:31;1086.1;;;982.0;;
68872;SDS011;55907;50.806;12.882;2023-08-24T14:10:32;1085.3;;;979.1;;
68872;SDS011;55907;50.806;12.882;2023-08-24T14:13:34;1085.8;;;979.5;;
68872;SDS011;55907;50.806;12.882;2023-08-24T14:16:35;1087.1;;;981.4;;
68872;SDS011;55907;50.806;12.882;2023-08-24T14:19:37;1080.7;;;976.1;;
68872;SDS011;55907;50.806;12.882;2023-08-24T14:22:38;1073.0;;;968.5;;
68872;SDS011;55907;50.806;12.882;2023-08-24T14:25:39;1073.9;;;969.8;;
68872;SDS011;55907;50.806;12.882;2023-08-24T14:28:49;1080.5;;;975.6;;
68872;SDS011;55907;50.806;12.882;2023-08-24T14:31:42;1083.5;;;976.7;;
68872;SDS011;55907;50.806;12.882;2023-08-24T14:34:43;1087.4;;;980.8;;
68872;SDS011;55907;50.806;12.882;2023-08-24T14:37:45;1097.1;;;988.0;;
68872;SDS011;55907;50.806;12.882;2023-08-24T14:40:46;1104.0;;;994.7;;
68872;SDS011;55907;50.806;12.882;2023-08-24T14:43:47;1106.7;;;995.6;;
68872;SDS011;55907;50.806;12.882;2023-08-24T14:46:49;1110.2;;;998.5;;
68872;SDS011;55907;50.806;12.882;2023-08-24T14:49:50;1105.5;;;993.6;;
68872;SDS011;55907;50.806;12.882;2023-08-24T14:52:52;1105.4;;;991.6;;
68872;SDS011;55907;50.806;12.882;2023-08-24T14:55:53;1112.4;;;995.1;;
68872;SDS011;55907;50.806;12.882;2023-08-24T14:58:54;1117.9;;;999.9;;
68872;SDS011;55907;50.806;12.882;2023-08-24T15:01:56;1110.0;;;995.8;;
68872;SDS011;55907;50.806;12.882;2023-08-24T15:04:57;1123.0;;;999.9;;
68872;SDS011;55907;50.806;12.882;2023-08-24T15:07:58;1123.8;;;999.9;;
68872;SDS011;55907;50.806;12.882;2023-08-24T15:11:00;1123.6;;;999.9;;
68872;SDS011;55907;50.806;12.882;2023-08-24T15:14:01;1116.4;;;999.9;;
68872;SDS011;55907;50.806;12.882;2023-08-24T15:17:03;1122.4;;;999.9;;
68872;SDS011;55907;50.806;12.882;2023-08-24T15:20:04;1116.8;;;999.9;;
68872;SDS011;55907;50.806;12.882;2023-08-24T15:23:05;1108.4;;;995.0;;
68872;SDS011;55907;50.806;12.882;2023-08-24T15:26:07;1105.5;;;993.9;;
68872;SDS011;55907;50.806;12.882;2023-08-24T15:29:10;1095.4;;;986.0;;
68872;SDS011;55907;50.806;12.882;2023-08-24T15:32:10;1091.0;;;982.1;;
68872;SDS011;55907;50.806;12.882;2023-08-24T15:35:11;1093.5;;;985.4;;
68872;SDS011;55907;50.806;12.882;2023-08-24T15:38:12;1100.6;;;991.0;;
68872;SDS011;55907;50.806;12.882;2023-08-24T15:41:13;1107.3;;;996.9;;
68872;SDS011;55907;50.806;12.882;2023-08-24T15:44:15;1123.7;;;999.9;;
68872;SDS011;55907;50.806;12.882;2023-08-24T15:47:16;1129.1;;;999.9;;
68872;SDS011;55907;50.806;12.882;2023-08-24T15:50:18;1124.5;;;999.9;;
68872;SDS011;55907;50.806;12.882;2023-08-24T15:53:19;1118.9;;;999.9;;
68872;SDS011;55907;50.806;12.882;2023-08-24T15:56:20;1108.0;;;997.4;;
68872;SDS011;55907;50.806;12.882;2023-08-24T15:59:22;1100.6;;;990.8;;
68872;SDS011;55907;50.806;12.882;2023-08-24T16:02:23;1110.3;;;999.9;;
68872;SDS011;55907;50.806;12.882;2023-08-24T16:05:25;1090.2;;;982.9;;
68872;SDS011;55907;50.806;12.882;2023-08-24T16:08:26;1083.2;;;976.7;;
68872;SDS011;55907;50.806;12.882;2023-08-24T16:11:27;1067.1;;;962.5;;
68872;SDS011;55907;50.806;12.882;2023-08-24T16:14:29;1061.5;;;957.2;;
68872;SDS011;55907;50.806;12.882;2023-08-24T16:17:30;1047.3;;;945.7;;
68872;SDS011;55907;50.806;12.882;2023-08-24T16:20:31;1042.3;;;940.8;;
68872;SDS011;55907;50.806;12.882;2023-08-24T16:23:33;1044.6;;;943.4;;
68872;SDS011;55907;50.806;12.882;2023-08-24T16:26:34;1039.0;;;938.7;;
68872;SDS011;55907;50.806;12.882;2023-08-24T16:29:35;1032.7;;;933.1;;
68872;SDS011;55907;50.806;12.882;2023-08-24T16:32:37;1029.7;;;930.4;;
68872;SDS011;55907;50.806;12.882;2023-08-24T16:35:38;1018.4;;;921.1;;
68872;SDS011;55907;50.806;12.882;2023-08-24T16:38:40;1008.2;;;912.3;;
68872;SDS011;55907;50.806;12.882;2023-08-24T16:41:41;1001.5;;;907.3;;
68872;SDS011;55907;50.806;12.882;2023-08-24T16:44:42;988.4;;;895.4;;
68872;SDS011;55907;50.806;12.882;2023-08-24T16:47:44;973.0;;;881.9;;
68872;SDS011;55907;50.806;12.882;2023-08-24T16:50:45;954.5;;;866.9;;
68872;SDS011;55907;50.806;12.882;2023-08-24T16:53:46;929.2;;;845.8;;
68872;SDS011;55907;50.806;12.882;2023-08-24T16:56:48;926.9;;;844.5;;
68872;SDS011;55907;50.806;12.882;2023-08-24T16:59:49;913.8;;;834.0;;
68872;SDS011;55907;50.806;12.882;2023-08-24T17:02:51;901.0;;;824.1;;
68872;SDS011;55907;50.806;12.882;2023-08-24T17:05:52;879.0;;;804.9;;
68872;SDS011;55907;50.806;12.882;2023-08-24T17:08:53;871.6;;;797.8;;
68872;SDS011;55907;50.806;12.882;2023-08-24T17:11:55;853.8;;;781.5;;
68872;SDS011;55907;50.806;12.882;2023-08-24T17:14:56;863.5;;;790.1;;
68872;SDS011;55907;50.806;12.882;2023-08-24T17:17:57;885.9;;;810.3;;
68872;SDS011;55907;50.806;12.882;2023-08-24T17:21:01;888.0;;;811.2;;
68872;SDS011;55907;50.806;12.882;2023-08-24T17:24:00;873.0;;;798.4;;